KRDU (Raleigh Durham International Airport)

 RUNWAY INFORMATION
Runway Number 05L Runway Length 10000 ft Runway Width 150 ft
Runway Elevation 367 ft Runway Displaced Threshold 0 ft Runway Surface Concrete
Runway Number 23R Runway Length 10000 ft Runway Width 150 ft
Runway Elevation 409 ft Runway Displaced Threshold 0 ft Runway Surface Concrete
Runway Number 05R Runway Length 7500 ft Runway Width 150 ft
Runway Elevation 397 ft Runway Displaced Threshold 0 ft Runway Surface Asphalt
Runway Number 23L Runway Length 7500 ft Runway Width 150 ft
Runway Elevation 431 ft Runway Displaced Threshold 0 ft Runway Surface Asphalt
Runway Number 14 Runway Length 3570 ft Runway Width 100 ft
Runway Elevation 432 ft Runway Displaced Threshold 0 ft Runway Surface Asphalt
Runway Number 32 Runway Length 3570 ft Runway Width 100 ft
Runway Elevation 425 ft Runway Displaced Threshold 0 ft Runway Surface Asphalt

  METAR AND TAF INFORMATION
METAR FOR KRDU
ADDS - METARS form results

(0700 UTC 20 April 2018)
Data provider: http://aviationweather.gov/adds/metars/
 
METAR text: KRDU 200651Z 00000KT 10SM CLR 05/M01 A3025 RMK AO2 SLP243 T00501011
Conditions at: KRDU (RALEIGH/DURHAM , NC, US) observed 0651 UTC 20 April 2018
Temperature: 5.0°C (41°F)
Dewpoint: -1.1°C (30°F) [RH = 65%]
Pressure (altimeter): 30.25 inches Hg (1024.5 mb)
[Sea-level pressure: 1024.3 mb]
Winds: calm
Visibility: 10 or more miles (16+ km)
Ceiling: at least 12,000 feet AGL
Clouds: sky clear below 12,000 feet AGL
Weather: no significant weather observed at this time

Forecast for: KRDU (RALEIGH/DURHAM , NC, US)
Text: KRDU 200533Z 2006/2106 01005KT P6SM SKC
Forecast period: 0600 UTC 20 April 2018 to 0600 UTC 21 April 2018
Forecast type: FROM: standard forecast or significant change
Winds: from the N (10 degrees) at 6 MPH (5 knots; 2.6 m/s)
Visibility: 6 or more miles (10+ km)
Clouds: clear skies
Weather: no significant weather forecast for this period
Forecast for: KRDU (RALEIGH/DURHAM , NC, US)
Text: KRDU 200533Z 2006/2106 01005KT P6SM SKC
Forecast period: 0600 UTC 20 April 2018 to 0600 UTC 21 April 2018
Forecast type: FROM: standard forecast or significant change
Winds: from the N (10 degrees) at 6 MPH (5 knots; 2.6 m/s)
Visibility: 6 or more miles (10+ km)
Clouds: clear skies
Weather: no significant weather forecast for this period

 AIRPORT FREQUENCIES
Type APP Name APP Frequency 124.8 MHZ
Type ATIS Name ATIS Frequency 123.8 MHZ
Type CLD Name CLNC DEL Frequency 120.1 MHZ
Type DEP Name DEP Frequency 125.3 MHZ
Type GND Name GND Frequency 121.7 MHZ
Type OPS Name ARNG OPS Frequency 49.15 MHZ
Type RDO Name RDO Frequency 122.2 MHZ
Type TWR Name TWR Frequency 119.3 MHZ
Type UNIC Name UNICOM Frequency 122.95 MHZ

 NEARBY NAVIGATION AIDS
Type VORTAC Name Raleigh-Durham Frequency 117200 KHZ



Powered by Virtual Airlines Manager